sensor_id;sensor_type;location;lat;lon;timestamp;temperature;humidity
18291;DHT22;9271;48.590;8.866;2024-01-25T00:01:21;11.50;99.90
18291;DHT22;9271;48.590;8.866;2024-01-25T00:03:49;11.80;99.90
18291;DHT22;9271;48.590;8.866;2024-01-25T00:06:15;12.20;99.90
18291;DHT22;9271;48.590;8.866;2024-01-25T00:08:42;12.30;99.90
18291;DHT22;9271;48.590;8.866;2024-01-25T00:11:09;12.10;99.90
18291;DHT22;9271;48.590;8.866;2024-01-25T00:13:35;11.70;99.90
18291;DHT22;9271;48.590;8.866;2024-01-25T00:16:03;11.80;99.90
18291;DHT22;9271;48.590;8.866;2024-01-25T00:18:30;11.60;99.90
18291;DHT22;9271;48.590;8.866;2024-01-25T00:20:58;11.50;99.90
18291;DHT22;9271;48.590;8.866;2024-01-25T00:23:26;11.20;99.90
18291;DHT22;9271;48.590;8.866;2024-01-25T00:25:52;11.00;99.90
18291;DHT22;9271;48.590;8.866;2024-01-25T00:28:18;11.20;99.90
18291;DHT22;9271;48.590;8.866;2024-01-25T00:30:45;11.20;99.90
18291;DHT22;9271;48.590;8.866;2024-01-25T00:33:12;10.90;99.90
18291;DHT22;9271;48.590;8.866;2024-01-25T00:35:39;11.10;99.90
18291;DHT22;9271;48.590;8.866;2024-01-25T00:38:08;11.00;99.90
18291;DHT22;9271;48.590;8.866;2024-01-25T00:40:35;11.20;99.90
18291;DHT22;9271;48.590;8.866;2024-01-25T00:43:02;11.50;99.90
18291;DHT22;9271;48.590;8.866;2024-01-25T00:45:29;11.60;99.90
18291;DHT22;9271;48.590;8.866;2024-01-25T00:47:56;11.60;99.90
18291;DHT22;9271;48.590;8.866;2024-01-25T00:50:24;11.50;99.90
18291;DHT22;9271;48.590;8.866;2024-01-25T00:52:52;11.30;99.90
18291;DHT22;9271;48.590;8.866;2024-01-25T00:55:20;11.40;99.90
18291;DHT22;9271;48.590;8.866;2024-01-25T00:57:48;11.50;99.90
18291;DHT22;9271;48.590;8.866;2024-01-25T01:00:15;11.50;99.90
18291;DHT22;9271;48.590;8.866;2024-01-25T01:02:43;11.70;99.90
18291;DHT22;9271;48.590;8.866;2024-01-25T01:05:11;11.60;99.90
18291;DHT22;9271;48.590;8.866;2024-01-25T01:07:39;11.30;99.90
18291;DHT22;9271;48.590;8.866;2024-01-25T01:10:07;11.60;99.90
18291;DHT22;9271;48.590;8.866;2024-01-25T01:12:35;11.80;99.90
18291;DHT22;9271;48.590;8.866;2024-01-25T01:15:02;11.80;99.90
18291;DHT22;9271;48.590;8.866;2024-01-25T01:17:29;11.80;99.90
18291;DHT22;9271;48.590;8.866;2024-01-25T01:19:56;11.70;99.90
18291;DHT22;9271;48.590;8.866;2024-01-25T01:22:22;11.40;99.90
18291;DHT22;9271;48.590;8.866;2024-01-25T01:24:49;11.40;99.90
18291;DHT22;9271;48.590;8.866;2024-01-25T01:27:16;11.50;99.90
18291;DHT22;9271;48.590;8.866;2024-01-25T01:29:44;11.60;99.90
18291;DHT22;9271;48.590;8.866;2024-01-25T01:32:10;11.70;99.90
18291;DHT22;9271;48.590;8.866;2024-01-25T01:34:37;11.70;99.90
18291;DHT22;9271;48.590;8.866;2024-01-25T01:37:04;11.60;99.90
18291;DHT22;9271;48.590;8.866;2024-01-25T01:39:30;11.40;99.90
18291;DHT22;9271;48.590;8.866;2024-01-25T01:41:57;11.20;99.90
18291;DHT22;9271;48.590;8.866;2024-01-25T01:44:24;11.20;99.90
18291;DHT22;9271;48.590;8.866;2024-01-25T01:46:52;11.20;99.90
18291;DHT22;9271;48.590;8.866;2024-01-25T01:49:20;11.30;99.90
18291;DHT22;9271;48.590;8.866;2024-01-25T01:51:47;11.60;99.90
18291;DHT22;9271;48.590;8.866;2024-01-25T01:54:14;11.70;99.90
18291;DHT22;9271;48.590;8.866;2024-01-25T01:56:41;11.70;99.90
18291;DHT22;9271;48.590;8.866;2024-01-25T01:59:09;11.50;99.90
18291;DHT22;9271;48.590;8.866;2024-01-25T02:01:37;11.60;99.90
18291;DHT22;9271;48.590;8.866;2024-01-25T02:04:05;11.80;99.90
18291;DHT22;9271;48.590;8.866;2024-01-25T02:06:32;11.40;99.90
18291;DHT22;9271;48.590;8.866;2024-01-25T02:08:59;11.20;99.90
18291;DHT22;9271;48.590;8.866;2024-01-25T02:11:26;11.20;99.90
18291;DHT22;9271;48.590;8.866;2024-01-25T02:13:53;11.40;99.90
18291;DHT22;9271;48.590;8.866;2024-01-25T02:16:20;11.40;99.90
18291;DHT22;9271;48.590;8.866;2024-01-25T02:18:47;11.40;99.90
18291;DHT22;9271;48.590;8.866;2024-01-25T02:21:15;11.50;99.90
18291;DHT22;9271;48.590;8.866;2024-01-25T02:23:43;11.30;99.90
18291;DHT22;9271;48.590;8.866;2024-01-25T02:26:10;11.20;99.90
18291;DHT22;9271;48.590;8.866;2024-01-25T02:28:36;11.00;99.90
18291;DHT22;9271;48.590;8.866;2024-01-25T02:31:03;11.20;99.90
18291;DHT22;9271;48.590;8.866;2024-01-25T02:33:30;11.00;99.90
18291;DHT22;9271;48.590;8.866;2024-01-25T02:35:57;10.60;99.90
18291;DHT22;9271;48.590;8.866;2024-01-25T02:38:23;10.50;99.90
18291;DHT22;9271;48.590;8.866;2024-01-25T02:40:51;10.40;99.90
18291;DHT22;9271;48.590;8.866;2024-01-25T02:43:19;10.50;99.90
18291;DHT22;9271;48.590;8.866;2024-01-25T02:45:45;10.60;99.90
18291;DHT22;9271;48.590;8.866;2024-01-25T02:48:13;10.80;99.90
18291;DHT22;9271;48.590;8.866;2024-01-25T02:50:40;10.70;99.90
18291;DHT22;9271;48.590;8.866;2024-01-25T02:53:07;10.50;99.90
18291;DHT22;9271;48.590;8.866;2024-01-25T02:55:33;10.30;99.90
18291;DHT22;9271;48.590;8.866;2024-01-25T02:58:01;10.20;99.90
18291;DHT22;9271;48.590;8.866;2024-01-25T03:00:28;9.90;99.90
18291;DHT22;9271;48.590;8.866;2024-01-25T03:02:55;10.00;99.90
18291;DHT22;9271;48.590;8.866;2024-01-25T03:05:21;10.10;99.90
18291;DHT22;9271;48.590;8.866;2024-01-25T03:07:48;10.10;99.90
18291;DHT22;9271;48.590;8.866;2024-01-25T03:10:15;10.20;99.90
18291;DHT22;9271;48.590;8.866;2024-01-25T03:12:41;10.20;99.90
18291;DHT22;9271;48.590;8.866;2024-01-25T03:15:11;10.20;99.90
18291;DHT22;9271;48.590;8.866;2024-01-25T03:17:37;10.50;99.90
18291;DHT22;9271;48.590;8.866;2024-01-25T03:20:05;10.30;99.90
18291;DHT22;9271;48.590;8.866;2024-01-25T03:22:32;10.50;99.90
18291;DHT22;9271;48.590;8.866;2024-01-25T03:24:59;10.40;99.90
18291;DHT22;9271;48.590;8.866;2024-01-25T03:27:25;10.30;99.90
18291;DHT22;9271;48.590;8.866;2024-01-25T03:29:52;10.10;99.90
18291;DHT22;9271;48.590;8.866;2024-01-25T03:32:20;9.80;99.90
18291;DHT22;9271;48.590;8.866;2024-01-25T03:34:47;9.90;99.90
18291;DHT22;9271;48.590;8.866;2024-01-25T03:37:12;10.00;99.90
18291;DHT22;9271;48.590;8.866;2024-01-25T03:39:39;10.10;99.90
18291;DHT22;9271;48.590;8.866;2024-01-25T03:42:05;10.20;99.90
18291;DHT22;9271;48.590;8.866;2024-01-25T03:44:32;10.50;99.90
18291;DHT22;9271;48.590;8.866;2024-01-25T03:46:59;10.30;99.90
18291;DHT22;9271;48.590;8.866;2024-01-25T03:49:27;10.50;99.90
18291;DHT22;9271;48.590;8.866;2024-01-25T03:51:53;10.50;99.90
18291;DHT22;9271;48.590;8.866;2024-01-25T03:54:20;10.70;99.90
18291;DHT22;9271;48.590;8.866;2024-01-25T03:56:47;11.20;99.90
18291;DHT22;9271;48.590;8.866;2024-01-25T03:59:13;11.20;99.90
18291;DHT22;9271;48.590;8.866;2024-01-25T04:01:44;10.80;99.90
18291;DHT22;9271;48.590;8.866;2024-01-25T04:04:12;10.70;99.90
18291;DHT22;9271;48.590;8.866;2024-01-25T04:06:42;10.90;99.90
18291;DHT22;9271;48.590;8.866;2024-01-25T04:09:09;10.80;99.90
18291;DHT22;9271;48.590;8.866;2024-01-25T04:11:36;10.60;99.90
18291;DHT22;9271;48.590;8.866;2024-01-25T04:14:03;10.60;99.90
18291;DHT22;9271;48.590;8.866;2024-01-25T04:16:32;10.70;99.90
18291;DHT22;9271;48.590;8.866;2024-01-25T04:18:59;10.70;99.90
18291;DHT22;9271;48.590;8.866;2024-01-25T04:21:26;10.80;99.90
18291;DHT22;9271;48.590;8.866;2024-01-25T04:23:54;10.60;99.90
18291;DHT22;9271;48.590;8.866;2024-01-25T04:26:22;10.50;99.90
18291;DHT22;9271;48.590;8.866;2024-01-25T04:28:48;10.20;99.90
18291;DHT22;9271;48.590;8.866;2024-01-25T04:31:15;10.00;99.90
18291;DHT22;9271;48.590;8.866;2024-01-25T04:33:41;10.00;99.90
18291;DHT22;9271;48.590;8.866;2024-01-25T04:36:08;10.00;99.90
18291;DHT22;9271;48.590;8.866;2024-01-25T04:38:35;9.90;99.90
18291;DHT22;9271;48.590;8.866;2024-01-25T04:41:03;10.10;99.90
18291;DHT22;9271;48.590;8.866;2024-01-25T04:43:33;10.30;99.90
18291;DHT22;9271;48.590;8.866;2024-01-25T04:46:00;10.20;99.90
18291;DHT22;9271;48.590;8.866;2024-01-25T04:48:28;10.20;99.90
18291;DHT22;9271;48.590;8.866;2024-01-25T04:50:56;10.30;99.90
18291;DHT22;9271;48.590;8.866;2024-01-25T04:53:22;10.20;99.90
18291;DHT22;9271;48.590;8.866;2024-01-25T04:55:53;10.20;99.90
18291;DHT22;9271;48.590;8.866;2024-01-25T04:58:28;10.30;99.90
18291;DHT22;9271;48.590;8.866;2024-01-25T05:00:54;10.30;99.90
18291;DHT22;9271;48.590;8.866;2024-01-25T05:03:21;10.20;99.90
18291;DHT22;9271;48.590;8.866;2024-01-25T05:05:48;10.10;99.90
18291;DHT22;9271;48.590;8.866;2024-01-25T05:08:14;10.10;99.90
18291;DHT22;9271;48.590;8.866;2024-01-25T05:10:41;10.00;99.90
18291;DHT22;9271;48.590;8.866;2024-01-25T05:13:08;10.10;99.90
18291;DHT22;9271;48.590;8.866;2024-01-25T05:15:36;10.10;99.90
18291;DHT22;9271;48.590;8.866;2024-01-25T05:18:04;10.10;99.90
18291;DHT22;9271;48.590;8.866;2024-01-25T05:20:31;10.10;99.90
18291;DHT22;9271;48.590;8.866;2024-01-25T05:22:59;10.20;99.90
18291;DHT22;9271;48.590;8.866;2024-01-25T05:25:26;10.30;99.90
18291;DHT22;9271;48.590;8.866;2024-01-25T05:27:53;10.50;99.90
18291;DHT22;9271;48.590;8.866;2024-01-25T05:30:19;10.50;99.90
18291;DHT22;9271;48.590;8.866;2024-01-25T05:32:47;10.50;99.90
18291;DHT22;9271;48.590;8.866;2024-01-25T05:35:15;10.60;99.90
18291;DHT22;9271;48.590;8.866;2024-01-25T05:37:42;10.20;99.90
18291;DHT22;9271;48.590;8.866;2024-01-25T05:40:09;9.70;99.90
18291;DHT22;9271;48.590;8.866;2024-01-25T05:42:36;9.90;99.90
18291;DHT22;9271;48.590;8.866;2024-01-25T05:45:03;9.90;99.90
18291;DHT22;9271;48.590;8.866;2024-01-25T05:47:30;9.90;99.90
18291;DHT22;9271;48.590;8.866;2024-01-25T05:49:58;10.10;99.90
18291;DHT22;9271;48.590;8.866;2024-01-25T05:52:25;10.40;99.90
18291;DHT22;9271;48.590;8.866;2024-01-25T05:54:52;10.40;99.90
18291;DHT22;9271;48.590;8.866;2024-01-25T05:57:18;10.40;99.90
18291;DHT22;9271;48.590;8.866;2024-01-25T05:59:45;10.30;99.90
18291;DHT22;9271;48.590;8.866;2024-01-25T06:02:13;10.20;99.90
18291;DHT22;9271;48.590;8.866;2024-01-25T06:04:40;9.90;99.90
18291;DHT22;9271;48.590;8.866;2024-01-25T06:07:08;9.90;99.90
18291;DHT22;9271;48.590;8.866;2024-01-25T06:09:34;9.90;99.90
18291;DHT22;9271;48.590;8.866;2024-01-25T06:12:01;9.90;99.90
18291;DHT22;9271;48.590;8.866;2024-01-25T06:14:29;9.80;99.90
18291;DHT22;9271;48.590;8.866;2024-01-25T06:16:55;9.70;99.90
18291;DHT22;9271;48.590;8.866;2024-01-25T06:19:22;9.50;99.90
18291;DHT22;9271;48.590;8.866;2024-01-25T06:21:50;9.40;99.90
18291;DHT22;9271;48.590;8.866;2024-01-25T06:24:18;9.30;99.90
18291;DHT22;9271;48.590;8.866;2024-01-25T06:26:44;9.20;99.90
18291;DHT22;9271;48.590;8.866;2024-01-25T06:29:11;9.30;99.90
18291;DHT22;9271;48.590;8.866;2024-01-25T06:31:41;9.10;99.90
18291;DHT22;9271;48.590;8.866;2024-01-25T06:34:08;9.10;99.90
18291;DHT22;9271;48.590;8.866;2024-01-25T06:36:35;8.90;99.90
18291;DHT22;9271;48.590;8.866;2024-01-25T06:39:01;8.90;99.90
18291;DHT22;9271;48.590;8.866;2024-01-25T06:41:31;8.80;99.90
18291;DHT22;9271;48.590;8.866;2024-01-25T06:43:58;8.80;99.90
18291;DHT22;9271;48.590;8.866;2024-01-25T06:46:25;8.70;99.90
18291;DHT22;9271;48.590;8.866;2024-01-25T06:48:52;9.00;99.90
18291;DHT22;9271;48.590;8.866;2024-01-25T06:51:18;9.00;99.90
18291;DHT22;9271;48.590;8.866;2024-01-25T06:53:45;9.00;99.90
18291;DHT22;9271;48.590;8.866;2024-01-25T06:56:12;9.10;99.90
18291;DHT22;9271;48.590;8.866;2024-01-25T06:58:40;9.10;99.90
18291;DHT22;9271;48.590;8.866;2024-01-25T07:01:06;8.60;99.90
18291;DHT22;9271;48.590;8.866;2024-01-25T07:03:33;8.40;99.90
18291;DHT22;9271;48.590;8.866;2024-01-25T07:06:00;8.40;99.90
18291;DHT22;9271;48.590;8.866;2024-01-25T07:08:26;8.50;99.90
18291;DHT22;9271;48.590;8.866;2024-01-25T07:10:53;8.50;99.90
18291;DHT22;9271;48.590;8.866;2024-01-25T07:13:21;8.40;99.90
18291;DHT22;9271;48.590;8.866;2024-01-25T07:15:49;7.90;99.90
18291;DHT22;9271;48.590;8.866;2024-01-25T07:18:16;7.90;99.90
18291;DHT22;9271;48.590;8.866;2024-01-25T07:20:42;8.00;99.90
18291;DHT22;9271;48.590;8.866;2024-01-25T07:23:09;8.20;99.90
18291;DHT22;9271;48.590;8.866;2024-01-25T07:25:36;8.30;99.90
18291;DHT22;9271;48.590;8.866;2024-01-25T07:28:03;8.60;99.90
18291;DHT22;9271;48.590;8.866;2024-01-25T07:30:29;8.60;99.90
18291;DHT22;9271;48.590;8.866;2024-01-25T07:32:57;8.50;99.90
18291;DHT22;9271;48.590;8.866;2024-01-25T07:35:24;8.40;99.90
18291;DHT22;9271;48.590;8.866;2024-01-25T07:37:51;8.60;99.90
18291;DHT22;9271;48.590;8.866;2024-01-25T07:40:17;8.60;99.90
18291;DHT22;9271;48.590;8.866;2024-01-25T07:42:45;8.00;99.90
18291;DHT22;9271;48.590;8.866;2024-01-25T07:45:12;7.80;99.90
18291;DHT22;9271;48.590;8.866;2024-01-25T07:47:40;8.00;99.90
18291;DHT22;9271;48.590;8.866;2024-01-25T07:50:09;8.40;99.90
18291;DHT22;9271;48.590;8.866;2024-01-25T07:52:36;8.80;99.90
18291;DHT22;9271;48.590;8.866;2024-01-25T07:55:03;8.70;99.90
18291;DHT22;9271;48.590;8.866;2024-01-25T07:57:30;8.90;99.90
18291;DHT22;9271;48.590;8.866;2024-01-25T07:59:56;9.10;99.90
18291;DHT22;9271;48.590;8.866;2024-01-25T08:02:23;9.40;99.90
18291;DHT22;9271;48.590;8.866;2024-01-25T08:04:49;9.50;99.90
18291;DHT22;9271;48.590;8.866;2024-01-25T08:07:17;9.10;99.90
18291;DHT22;9271;48.590;8.866;2024-01-25T08:09:45;9.00;99.90
18291;DHT22;9271;48.590;8.866;2024-01-25T08:12:11;8.60;99.90
18291;DHT22;9271;48.590;8.866;2024-01-25T08:14:38;8.20;99.90
18291;DHT22;9271;48.590;8.866;2024-01-25T08:17:05;8.20;99.90
18291;DHT22;9271;48.590;8.866;2024-01-25T08:19:32;8.60;99.90
18291;DHT22;9271;48.590;8.866;2024-01-25T08:21:58;9.20;99.90
18291;DHT22;9271;48.590;8.866;2024-01-25T08:24:26;9.80;99.90
18291;DHT22;9271;48.590;8.866;2024-01-25T08:26:53;11.30;99.90
18291;DHT22;9271;48.590;8.866;2024-01-25T08:29:19;13.60;99.90
18291;DHT22;9271;48.590;8.866;2024-01-25T08:31:46;16.20;99.00
18291;DHT22;9271;48.590;8.866;2024-01-25T08:34:13;17.30;94.40
18291;DHT22;9271;48.590;8.866;2024-01-25T08:36:40;18.60;92.50
18291;DHT22;9271;48.590;8.866;2024-01-25T08:39:06;20.60;88.60
18291;DHT22;9271;48.590;8.866;2024-01-25T08:41:35;21.40;79.90
18291;DHT22;9271;48.590;8.866;2024-01-25T08:44:02;21.70;78.10
18291;DHT22;9271;48.590;8.866;2024-01-25T08:46:28;20.90;77.90
18291;DHT22;9271;48.590;8.866;2024-01-25T08:48:55;20.50;80.10
18291;DHT22;9271;48.590;8.866;2024-01-25T08:51:22;18.70;81.70
18291;DHT22;9271;48.590;8.866;2024-01-25T08:53:48;18.80;84.10
18291;DHT22;9271;48.590;8.866;2024-01-25T08:56:16;19.90;82.50
18291;DHT22;9271;48.590;8.866;2024-01-25T08:58:44;21.70;76.80
18291;DHT22;9271;48.590;8.866;2024-01-25T09:01:13;23.10;70.90
18291;DHT22;9271;48.590;8.866;2024-01-25T09:03:39;24.00;69.10
18291;DHT22;9271;48.590;8.866;2024-01-25T09:06:07;24.00;65.90
18291;DHT22;9271;48.590;8.866;2024-01-25T09:08:33;23.90;66.10
18291;DHT22;9271;48.590;8.866;2024-01-25T09:11:00;23.70;64.90
18291;DHT22;9271;48.590;8.866;2024-01-25T09:13:27;24.10;63.20
18291;DHT22;9271;48.590;8.866;2024-01-25T09:15:55;25.20;62.00
18291;DHT22;9271;48.590;8.866;2024-01-25T09:18:22;26.10;57.90
18291;DHT22;9271;48.590;8.866;2024-01-25T09:20:48;24.50;58.60
18291;DHT22;9271;48.590;8.866;2024-01-25T09:23:15;24.90;59.40
18291;DHT22;9271;48.590;8.866;2024-01-25T09:25:42;23.90;58.80
18291;DHT22;9271;48.590;8.866;2024-01-25T09:28:10;22.20;62.80
18291;DHT22;9271;48.590;8.866;2024-01-25T09:30:37;21.50;64.20
18291;DHT22;9271;48.590;8.866;2024-01-25T09:33:05;21.30;65.20
18291;DHT22;9271;48.590;8.866;2024-01-25T09:35:32;19.80;67.70
18291;DHT22;9271;48.590;8.866;2024-01-25T09:37:59;17.20;73.40
18291;DHT22;9271;48.590;8.866;2024-01-25T09:40:26;16.60;77.30
18291;DHT22;9271;48.590;8.866;2024-01-25T09:42:53;16.30;79.40
18291;DHT22;9271;48.590;8.866;2024-01-25T09:45:19;16.00;80.80
18291;DHT22;9271;48.590;8.866;2024-01-25T09:47:46;16.10;80.90
18291;DHT22;9271;48.590;8.866;2024-01-25T09:50:14;15.90;82.10
18291;DHT22;9271;48.590;8.866;2024-01-25T09:52:43;17.20;79.40
18291;DHT22;9271;48.590;8.866;2024-01-25T09:55:12;18.90;77.90
18291;DHT22;9271;48.590;8.866;2024-01-25T09:57:41;20.00;74.10
18291;DHT22;9271;48.590;8.866;2024-01-25T10:00:13;21.40;69.20
18291;DHT22;9271;48.590;8.866;2024-01-25T10:02:39;22.10;66.80
18291;DHT22;9271;48.590;8.866;2024-01-25T10:05:07;21.70;66.00
18291;DHT22;9271;48.590;8.866;2024-01-25T10:07:38;23.00;64.10
18291;DHT22;9271;48.590;8.866;2024-01-25T10:10:06;24.80;60.20
18291;DHT22;9271;48.590;8.866;2024-01-25T10:12:33;25.40;57.50
18291;DHT22;9271;48.590;8.866;2024-01-25T10:14:59;24.60;56.00
18291;DHT22;9271;48.590;8.866;2024-01-25T10:17:28;22.00;59.80
18291;DHT22;9271;48.590;8.866;2024-01-25T10:19:55;21.00;63.60
18291;DHT22;9271;48.590;8.866;2024-01-25T10:22:21;21.30;63.00
18291;DHT22;9271;48.590;8.866;2024-01-25T10:24:49;21.80;63.40
18291;DHT22;9271;48.590;8.866;2024-01-25T10:27:18;22.60;60.80
18291;DHT22;9271;48.590;8.866;2024-01-25T10:29:45;21.00;61.00
18291;DHT22;9271;48.590;8.866;2024-01-25T10:32:12;20.10;66.00
18291;DHT22;9271;48.590;8.866;2024-01-25T10:34:38;22.50;61.40
18291;DHT22;9271;48.590;8.866;2024-01-25T10:37:06;22.80;59.40
18291;DHT22;9271;48.590;8.866;2024-01-25T10:39:33;21.40;59.50
18291;DHT22;9271;48.590;8.866;2024-01-25T10:42:01;20.70;61.00
18291;DHT22;9271;48.590;8.866;2024-01-25T10:44:28;19.10;66.50
18291;DHT22;9271;48.590;8.866;2024-01-25T10:46:55;20.80;66.10
18291;DHT22;9271;48.590;8.866;2024-01-25T10:49:23;24.20;58.40
18291;DHT22;9271;48.590;8.866;2024-01-25T10:51:50;25.40;54.90
18291;DHT22;9271;48.590;8.866;2024-01-25T10:54:18;26.70;53.00
18291;DHT22;9271;48.590;8.866;2024-01-25T10:56:46;26.60;50.30
18291;DHT22;9271;48.590;8.866;2024-01-25T10:59:16;24.80;51.50
18291;DHT22;9271;48.590;8.866;2024-01-25T11:01:44;23.60;54.20
18291;DHT22;9271;48.590;8.866;2024-01-25T11:04:15;23.00;53.40
18291;DHT22;9271;48.590;8.866;2024-01-25T11:06:43;21.90;57.40
18291;DHT22;9271;48.590;8.866;2024-01-25T11:09:16;22.80;57.20
18291;DHT22;9271;48.590;8.866;2024-01-25T11:11:44;22.90;55.90
18291;DHT22;9271;48.590;8.866;2024-01-25T11:14:13;24.70;54.30
18291;DHT22;9271;48.590;8.866;2024-01-25T11:16:43;26.80;51.90
18291;DHT22;9271;48.590;8.866;2024-01-25T11:19:16;28.30;47.40
18291;DHT22;9271;48.590;8.866;2024-01-25T11:21:44;27.50;47.80
18291;DHT22;9271;48.590;8.866;2024-01-25T11:24:12;28.10;47.60
18291;DHT22;9271;48.590;8.866;2024-01-25T11:26:40;29.10;45.10
18291;DHT22;9271;48.590;8.866;2024-01-25T11:29:07;30.10;42.50
18291;DHT22;9271;48.590;8.866;2024-01-25T11:31:34;28.00;42.80
18291;DHT22;9271;48.590;8.866;2024-01-25T11:34:02;26.00;46.80
18291;DHT22;9271;48.590;8.866;2024-01-25T11:36:29;24.00;49.80
18291;DHT22;9271;48.590;8.866;2024-01-25T11:38:55;22.90;51.20
18291;DHT22;9271;48.590;8.866;2024-01-25T11:41:22;22.20;52.40
18291;DHT22;9271;48.590;8.866;2024-01-25T11:43:49;24.50;50.60
18291;DHT22;9271;48.590;8.866;2024-01-25T11:46:17;26.30;48.30
18291;DHT22;9271;48.590;8.866;2024-01-25T11:48:44;27.90;46.90
18291;DHT22;9271;48.590;8.866;2024-01-25T11:51:12;28.80;43.80
18291;DHT22;9271;48.590;8.866;2024-01-25T11:53:39;29.90;42.20
18291;DHT22;9271;48.590;8.866;2024-01-25T11:56:07;28.20;41.80
18291;DHT22;9271;48.590;8.866;2024-01-25T11:58:35;27.00;42.00
18291;DHT22;9271;48.590;8.866;2024-01-25T12:01:03;23.70;47.80
18291;DHT22;9271;48.590;8.866;2024-01-25T12:03:33;24.80;48.50
18291;DHT22;9271;48.590;8.866;2024-01-25T12:06:01;27.50;44.50
18291;DHT22;9271;48.590;8.866;2024-01-25T12:08:31;29.40;40.40
18291;DHT22;9271;48.590;8.866;2024-01-25T12:11:08;27.40;41.10
18291;DHT22;9271;48.590;8.866;2024-01-25T12:13:35;25.90;45.00
18291;DHT22;9271;48.590;8.866;2024-01-25T12:16:03;27.40;42.50
18291;DHT22;9271;48.590;8.866;2024-01-25T12:18:30;29.30;40.50
18291;DHT22;9271;48.590;8.866;2024-01-25T12:20:58;31.50;37.50
18291;DHT22;9271;48.590;8.866;2024-01-25T12:23:34;29.80;37.10
18291;DHT22;9271;48.590;8.866;2024-01-25T12:26:01;28.40;39.50
18291;DHT22;9271;48.590;8.866;2024-01-25T12:28:29;28.30;39.70
18291;DHT22;9271;48.590;8.866;2024-01-25T12:30:56;28.20;38.50
18291;DHT22;9271;48.590;8.866;2024-01-25T12:33:23;27.20;41.00
18291;DHT22;9271;48.590;8.866;2024-01-25T12:35:50;26.30;41.80
18291;DHT22;9271;48.590;8.866;2024-01-25T12:38:16;26.30;41.30
18291;DHT22;9271;48.590;8.866;2024-01-25T12:40:46;26.20;40.90
18291;DHT22;9271;48.590;8.866;2024-01-25T12:43:14;25.50;42.50
18291;DHT22;9271;48.590;8.866;2024-01-25T12:45:41;25.10;42.70
18291;DHT22;9271;48.590;8.866;2024-01-25T12:48:08;26.20;42.10
18291;DHT22;9271;48.590;8.866;2024-01-25T12:50:35;26.80;40.50
18291;DHT22;9271;48.590;8.866;2024-01-25T12:53:02;24.40;42.70
18291;DHT22;9271;48.590;8.866;2024-01-25T12:55:29;24.70;43.90
18291;DHT22;9271;48.590;8.866;2024-01-25T12:57:59;25.30;42.70
18291;DHT22;9271;48.590;8.866;2024-01-25T13:00:26;23.70;44.80
18291;DHT22;9271;48.590;8.866;2024-01-25T13:02:52;22.90;45.90
18291;DHT22;9271;48.590;8.866;2024-01-25T13:05:20;22.30;45.90
18291;DHT22;9271;48.590;8.866;2024-01-25T13:07:46;21.50;47.90
18291;DHT22;9271;48.590;8.866;2024-01-25T13:10:13;21.70;47.90
18291;DHT22;9271;48.590;8.866;2024-01-25T13:12:40;20.80;48.50
18291;DHT22;9271;48.590;8.866;2024-01-25T13:15:08;20.40;49.50
18291;DHT22;9271;48.590;8.866;2024-01-25T13:17:35;19.50;52.70
18291;DHT22;9271;48.590;8.866;2024-01-25T13:20:02;19.70;51.00
18291;DHT22;9271;48.590;8.866;2024-01-25T13:22:31;18.80;52.70
18291;DHT22;9271;48.590;8.866;2024-01-25T13:24:58;19.10;51.50
18291;DHT22;9271;48.590;8.866;2024-01-25T13:27:25;18.90;52.00
18291;DHT22;9271;48.590;8.866;2024-01-25T13:29:52;19.20;50.90
18291;DHT22;9271;48.590;8.866;2024-01-25T13:32:20;18.60;51.90
18291;DHT22;9271;48.590;8.866;2024-01-25T13:34:46;17.80;52.40
18291;DHT22;9271;48.590;8.866;2024-01-25T13:37:13;16.50;56.40
18291;DHT22;9271;48.590;8.866;2024-01-25T13:39:39;16.50;56.70
18291;DHT22;9271;48.590;8.866;2024-01-25T13:42:06;16.20;57.90
18291;DHT22;9271;48.590;8.866;2024-01-25T13:44:33;16.50;57.20
18291;DHT22;9271;48.590;8.866;2024-01-25T13:46:59;15.60;58.80
18291;DHT22;9271;48.590;8.866;2024-01-25T13:49:28;15.00;61.00
18291;DHT22;9271;48.590;8.866;2024-01-25T13:51:55;14.80;62.40
18291;DHT22;9271;48.590;8.866;2024-01-25T13:54:21;15.00;62.80
18291;DHT22;9271;48.590;8.866;2024-01-25T13:56:48;14.90;62.10
18291;DHT22;9271;48.590;8.866;2024-01-25T13:59:14;14.60;62.50
18291;DHT22;9271;48.590;8.866;2024-01-25T14:01:41;14.20;65.60
18291;DHT22;9271;48.590;8.866;2024-01-25T14:04:08;14.00;66.60
18291;DHT22;9271;48.590;8.866;2024-01-25T14:06:36;14.20;67.30
18291;DHT22;9271;48.590;8.866;2024-01-25T14:09:02;14.20;67.90
18291;DHT22;9271;48.590;8.866;2024-01-25T14:11:30;13.90;69.60
18291;DHT22;9271;48.590;8.866;2024-01-25T14:13:57;13.50;71.50
18291;DHT22;9271;48.590;8.866;2024-01-25T14:16:24;13.10;74.20
18291;DHT22;9271;48.590;8.866;2024-01-25T14:18:50;13.30;74.40
18291;DHT22;9271;48.590;8.866;2024-01-25T14:21:17;13.20;75.30
18291;DHT22;9271;48.590;8.866;2024-01-25T14:23:47;13.20;76.60
18291;DHT22;9271;48.590;8.866;2024-01-25T14:26:14;13.40;74.70
18291;DHT22;9271;48.590;8.866;2024-01-25T14:28:40;13.00;75.10
18291;DHT22;9271;48.590;8.866;2024-01-25T14:31:07;12.70;76.40
18291;DHT22;9271;48.590;8.866;2024-01-25T14:33:34;12.70;77.60
18291;DHT22;9271;48.590;8.866;2024-01-25T14:36:00;12.80;77.30
18291;DHT22;9271;48.590;8.866;2024-01-25T14:38:29;12.70;78.70
18291;DHT22;9271;48.590;8.866;2024-01-25T14:40:57;12.90;78.90
18291;DHT22;9271;48.590;8.866;2024-01-25T14:43:23;12.60;80.60
18291;DHT22;9271;48.590;8.866;2024-01-25T14:45:50;12.80;81.30
18291;DHT22;9271;48.590;8.866;2024-01-25T14:48:17;12.50;83.40
18291;DHT22;9271;48.590;8.866;2024-01-25T14:50:44;12.50;84.80
18291;DHT22;9271;48.590;8.866;2024-01-25T14:53:11;12.10;87.70
18291;DHT22;9271;48.590;8.866;2024-01-25T14:55:38;12.20;89.40
18291;DHT22;9271;48.590;8.866;2024-01-25T14:58:06;12.50;89.90
18291;DHT22;9271;48.590;8.866;2024-01-25T15:00:34;12.60;90.20
18291;DHT22;9271;48.590;8.866;2024-01-25T15:03:00;12.80;90.70
18291;DHT22;9271;48.590;8.866;2024-01-25T15:05:27;13.00;90.20
18291;DHT22;9271;48.590;8.866;2024-01-25T15:07:53;12.50;91.70
18291;DHT22;9271;48.590;8.866;2024-01-25T15:10:20;12.10;93.60
18291;DHT22;9271;48.590;8.866;2024-01-25T15:12:47;12.40;93.80
18291;DHT22;9271;48.590;8.866;2024-01-25T15:15:15;12.40;94.50
18291;DHT22;9271;48.590;8.866;2024-01-25T15:17:42;12.30;95.50
18291;DHT22;9271;48.590;8.866;2024-01-25T15:20:09;12.30;96.50
18291;DHT22;9271;48.590;8.866;2024-01-25T15:22:36;12.40;97.20
18291;DHT22;9271;48.590;8.866;2024-01-25T15:25:04;12.80;96.90
18291;DHT22;9271;48.590;8.866;2024-01-25T15:27:31;12.40;98.40
18291;DHT22;9271;48.590;8.866;2024-01-25T15:29:57;12.60;98.50
18291;DHT22;9271;48.590;8.866;2024-01-25T15:32:25;12.20;99.80
18291;DHT22;9271;48.590;8.866;2024-01-25T15:34:52;12.30;99.90
18291;DHT22;9271;48.590;8.866;2024-01-25T15:37:19;12.50;99.90
18291;DHT22;9271;48.590;8.866;2024-01-25T15:39:45;12.40;99.90
18291;DHT22;9271;48.590;8.866;2024-01-25T15:42:12;12.80;99.90
18291;DHT22;9271;48.590;8.866;2024-01-25T15:44:39;13.00;99.80
18291;DHT22;9271;48.590;8.866;2024-01-25T15:47:07;13.10;99.80
18291;DHT22;9271;48.590;8.866;2024-01-25T15:49:35;13.40;99.40